createdAt,value
2023-02-22T00:00:31.968Z,190.11
2023-02-22T00:01:32.009Z,189.41
2023-02-22T00:02:32.020Z,189.41
2023-02-22T00:03:32.036Z,188.16
2023-02-22T00:04:32.114Z,189.23
2023-02-22T00:05:32.093Z,188.00
2023-02-22T00:06:32.125Z,188.16
2023-02-22T00:07:32.169Z,189.59
2023-02-22T00:08:32.242Z,190.74
2023-02-22T00:09:32.278Z,189.38
2023-02-22T00:10:32.316Z,189.25
2023-02-22T00:11:32.365Z,187.51
2023-02-22T00:12:32.402Z,189.64
2023-02-22T00:13:32.409Z,189.42
2023-02-22T00:14:32.473Z,189.98
2023-02-22T00:15:32.469Z,189.52
2023-02-22T00:16:32.571Z,189.85
2023-02-22T00:17:32.550Z,189.61
2023-02-22T00:18:32.582Z,189.88
2023-02-22T00:19:32.620Z,189.49
2023-02-22T00:20:32.636Z,190.37
2023-02-22T00:21:32.683Z,189.17
2023-02-22T00:22:32.697Z,187.99
2023-02-22T00:23:32.716Z,189.48
2023-02-22T00:24:32.743Z,188.46
2023-02-22T00:25:32.760Z,188.00
2023-02-22T00:26:32.800Z,189.45
2023-02-22T00:27:32.815Z,187.13
2023-02-22T00:28:32.832Z,187.24
2023-02-22T00:29:32.873Z,187.26
2023-02-22T00:30:33.109Z,187.97
2023-02-22T00:31:32.941Z,187.71
2023-02-22T00:32:32.997Z,187.81
2023-02-22T00:33:32.985Z,187.25
2023-02-22T00:34:32.997Z,185.95
2023-02-22T00:35:33.037Z,187.13
2023-02-22T00:36:33.035Z,185.43
2023-02-22T00:37:33.052Z,184.86
2023-02-22T00:38:33.068Z,186.89
2023-02-22T00:39:33.087Z,185.72
2023-02-22T00:40:33.096Z,185.51
2023-02-22T00:41:33.154Z,184.42
2023-02-22T00:42:33.124Z,185.60
2023-02-22T00:43:33.134Z,185.90
2023-02-22T00:44:33.159Z,185.27
2023-02-22T00:45:33.208Z,186.31
2023-02-22T00:46:33.177Z,185.86
2023-02-22T00:47:33.182Z,186.41
2023-02-22T00:48:33.193Z,186.61
2023-02-22T00:49:33.212Z,184.09
2023-02-22T00:50:33.229Z,185.95
2023-02-22T00:51:33.240Z,185.94
2023-02-22T00:52:33.873Z,184.96
2023-02-22T00:53:33.272Z,185.88
2023-02-22T00:54:33.281Z,185.39
2023-02-22T00:55:33.323Z,184.42
2023-02-22T00:56:33.310Z,185.93
2023-02-22T00:57:33.331Z,184.50
2023-02-22T00:58:33.342Z,184.09
2023-02-22T00:59:33.357Z,183.75
2023-02-22T01:00:33.363Z,184.60
2023-02-22T01:01:33.449Z,184.27
2023-02-22T01:02:33.409Z,184.94
2023-02-22T01:03:33.424Z,185.11
2023-02-22T01:04:33.450Z,182.45
2023-02-22T01:05:33.463Z,185.12
2023-02-22T01:06:33.473Z,184.98
2023-02-22T01:07:33.485Z,184.59
2023-02-22T01:08:33.500Z,185.02
2023-02-22T01:09:33.518Z,184.36
2023-02-22T01:10:33.528Z,183.74
2023-02-22T01:11:33.548Z,181.94
2023-02-22T01:12:33.587Z,182.42
2023-02-22T01:13:33.595Z,182.73
2023-02-22T01:14:33.620Z,182.73
2023-02-22T01:15:33.658Z,183.89
2023-02-22T01:16:33.769Z,182.34
2023-02-22T01:17:33.712Z,182.32
2023-02-22T01:18:33.717Z,183.51
2023-02-22T01:19:33.747Z,181.75
2023-02-22T01:20:33.786Z,183.99
2023-02-22T01:21:33.774Z,181.76
2023-02-22T01:22:33.888Z,181.32
2023-02-22T01:23:33.815Z,181.60
2023-02-22T01:24:33.833Z,181.42
2023-02-22T01:25:33.836Z,181.01
2023-02-22T01:26:33.872Z,182.52
2023-02-22T01:27:33.876Z,179.77
2023-02-22T01:28:33.948Z,182.91
2023-02-22T01:29:33.919Z,181.65
2023-02-22T01:30:34.106Z,182.70
2023-02-22T01:31:34.062Z,181.83
2023-02-22T01:32:34.016Z,182.13
2023-02-22T01:33:34.097Z,180.61
2023-02-22T01:34:34.053Z,182.15
2023-02-22T01:35:34.075Z,182.03
2023-02-22T01:36:34.077Z,182.03
2023-02-22T01:37:34.110Z,181.28
2023-02-22T01:38:34.123Z,180.62
2023-02-22T01:39:34.160Z,180.89
2023-02-22T01:40:34.182Z,179.14
2023-02-22T01:41:34.192Z,181.32
2023-02-22T01:42:34.208Z,180.51
2023-02-22T01:43:34.254Z,180.28
2023-02-22T01:44:34.244Z,181.90
2023-02-22T01:45:34.257Z,179.36
2023-02-22T01:46:34.269Z,180.00
2023-02-22T01:47:34.306Z,182.16
2023-02-22T01:48:34.343Z,180.92
2023-02-22T01:49:34.363Z,180.61
2023-02-22T01:50:34.384Z,180.29
2023-02-22T01:51:34.392Z,181.45
2023-02-22T01:52:34.414Z,180.02
2023-02-22T01:53:34.439Z,180.47
2023-02-22T01:54:34.468Z,180.20
2023-02-22T01:55:34.494Z,180.41
2023-02-22T01:56:34.516Z,181.91
2023-02-22T01:57:34.530Z,179.78
2023-02-22T01:58:34.540Z,180.33
2023-02-22T01:59:34.558Z,180.71
2023-02-22T02:00:34.597Z,181.75
2023-02-22T02:01:34.614Z,179.70
2023-02-22T02:02:34.674Z,180.42
2023-02-22T02:03:34.727Z,179.95
2023-02-22T02:04:34.762Z,180.66
2023-02-22T02:05:34.713Z,178.32
2023-02-22T02:06:34.780Z,179.80
2023-02-22T02:07:34.793Z,179.39
2023-02-22T02:08:34.840Z,177.55
2023-02-22T02:09:34.852Z,178.28
2023-02-22T02:10:34.872Z,179.15
2023-02-22T02:11:34.878Z,178.98
2023-02-22T02:12:34.906Z,180.12
2023-02-22T02:13:34.927Z,180.08
2023-02-22T02:14:34.954Z,178.87
2023-02-22T02:15:34.978Z,180.12
2023-02-22T02:16:35.027Z,180.25
2023-02-22T02:17:35.062Z,179.79
2023-02-22T02:18:35.097Z,180.88
2023-02-22T02:19:35.171Z,178.93
2023-02-22T02:20:35.207Z,177.19
2023-02-22T02:21:35.228Z,178.85
2023-02-22T02:22:35.266Z,178.86
2023-02-22T02:23:35.276Z,177.89
2023-02-22T02:24:35.324Z,179.92
2023-02-22T02:25:35.341Z,179.51
2023-02-22T02:26:35.376Z,179.48
2023-02-22T02:27:35.390Z,179.39
2023-02-22T02:28:35.440Z,180.72
2023-02-22T02:29:35.463Z,179.51
2023-02-22T02:30:35.530Z,179.63
2023-02-22T02:31:35.660Z,177.07
2023-02-22T02:32:35.597Z,178.12
2023-02-22T02:33:35.600Z,179.36
2023-02-22T02:34:35.622Z,177.59
2023-02-22T02:35:35.652Z,177.23
2023-02-22T02:36:35.673Z,178.01
2023-02-22T02:37:35.678Z,178.64
2023-02-22T02:38:35.745Z,179.24
2023-02-22T02:39:35.725Z,177.45
2023-02-22T02:40:35.754Z,178.72
2023-02-22T02:41:35.786Z,176.55
2023-02-22T02:42:35.799Z,177.71
2023-02-22T02:43:35.835Z,177.10
2023-02-22T02:44:35.860Z,177.15
2023-02-22T02:45:35.883Z,177.71
2023-02-22T02:46:35.949Z,178.57
2023-02-22T02:47:35.975Z,179.42
2023-02-22T02:48:36.001Z,178.56
2023-02-22T02:49:36.023Z,177.16
2023-02-22T02:50:36.054Z,177.76
2023-02-22T02:51:36.097Z,178.39
2023-02-22T02:52:36.115Z,177.80
2023-02-22T02:53:36.150Z,177.55
2023-02-22T02:54:36.189Z,177.31
2023-02-22T02:55:36.216Z,175.29
2023-02-22T02:56:36.235Z,176.98
2023-02-22T02:57:36.246Z,178.79
2023-02-22T02:58:36.275Z,177.87
2023-02-22T02:59:36.274Z,178.36
2023-02-22T03:00:36.294Z,177.04
2023-02-22T03:01:36.382Z,175.97
2023-02-22T03:02:36.334Z,176.67
2023-02-22T03:03:36.358Z,178.09
2023-02-22T03:04:36.401Z,178.22
2023-02-22T03:05:36.437Z,177.10
2023-02-22T03:06:36.465Z,175.85
2023-02-22T03:07:36.480Z,178.06
2023-02-22T03:08:36.480Z,177.60
2023-02-22T03:09:36.506Z,177.42
2023-02-22T03:10:36.538Z,175.55
2023-02-22T03:11:36.567Z,175.76
2023-02-22T03:12:37.431Z,176.04
2023-02-22T03:13:36.640Z,175.75
2023-02-22T03:14:36.665Z,176.30
2023-02-22T03:15:36.680Z,174.34
2023-02-22T03:16:36.749Z,175.56
2023-02-22T03:17:36.761Z,177.17
2023-02-22T03:18:36.763Z,176.15
2023-02-22T03:19:36.791Z,176.96
2023-02-22T03:20:36.797Z,176.79
2023-02-22T03:21:36.812Z,175.11
2023-02-22T03:22:36.827Z,174.95
2023-02-22T03:23:36.892Z,176.61
2023-02-22T03:24:36.854Z,177.40
2023-02-22T03:25:36.917Z,177.58
2023-02-22T03:26:36.942Z,176.96
2023-02-22T03:27:36.955Z,176.54
2023-02-22T03:28:36.996Z,174.99
2023-02-22T03:29:37.033Z,175.05
2023-02-22T03:30:37.088Z,176.23
2023-02-22T03:31:37.040Z,174.68
2023-02-22T03:32:37.110Z,176.43
2023-02-22T03:33:37.064Z,177.11
2023-02-22T03:34:37.092Z,175.90
2023-02-22T03:35:37.131Z,175.88
2023-02-22T03:36:37.124Z,176.57
2023-02-22T03:37:37.150Z,174.52
2023-02-22T03:38:37.154Z,175.95
2023-02-22T03:39:37.174Z,172.07
2023-02-22T03:40:37.189Z,173.93
2023-02-22T03:41:37.271Z,173.22
2023-02-22T03:42:37.207Z,172.94
2023-02-22T03:43:37.225Z,172.41
2023-02-22T03:44:37.234Z,173.98
2023-02-22T03:45:37.248Z,173.83
2023-02-22T03:46:37.330Z,170.52
2023-02-22T03:47:37.281Z,173.77
2023-02-22T03:48:37.309Z,171.77
2023-02-22T03:49:37.348Z,172.14
2023-02-22T03:50:37.357Z,171.69
2023-02-22T03:51:37.378Z,171.28
2023-02-22T03:52:37.437Z,172.84
2023-02-22T03:53:37.420Z,172.65
2023-02-22T03:54:37.432Z,171.93
2023-02-22T03:55:37.461Z,173.09
2023-02-22T03:56:37.474Z,174.00
2023-02-22T03:57:37.480Z,172.25
2023-02-22T03:58:37.495Z,172.46
2023-02-22T03:59:37.520Z,173.03
2023-02-22T04:00:37.543Z,171.86
2023-02-22T04:01:37.556Z,172.64
2023-02-22T04:02:37.578Z,173.23
2023-02-22T04:03:37.614Z,173.22
2023-02-22T04:04:37.761Z,172.46
2023-02-22T04:05:37.657Z,172.53
2023-02-22T04:06:37.690Z,172.74
2023-02-22T04:07:37.710Z,172.39
2023-02-22T04:08:37.727Z,174.48
2023-02-22T04:09:37.769Z,170.15
2023-02-22T04:10:37.820Z,172.29
2023-02-22T04:11:37.847Z,172.98
2023-02-22T04:12:37.887Z,173.46
2023-02-22T04:13:37.941Z,173.42
2023-02-22T04:14:38.002Z,174.20
2023-02-22T04:15:38.114Z,172.83
2023-02-22T04:16:38.110Z,172.50
2023-02-22T04:17:38.142Z,172.77
2023-02-22T04:18:38.203Z,173.21
2023-02-22T04:19:38.239Z,172.63
2023-02-22T04:20:38.312Z,173.21
2023-02-22T04:21:38.349Z,173.45
2023-02-22T04:22:38.385Z,171.11
2023-02-22T04:23:38.393Z,171.99
2023-02-22T04:24:38.446Z,172.50
2023-02-22T04:25:38.455Z,171.85
2023-02-22T04:26:38.449Z,171.63
2023-02-22T04:27:38.461Z,171.52
2023-02-22T04:28:38.480Z,171.31
2023-02-22T04:29:38.489Z,170.74
2023-02-22T04:30:38.592Z,171.18
2023-02-22T04:31:38.632Z,171.64
2023-02-22T04:32:38.564Z,170.19
2023-02-22T04:33:38.596Z,171.63
2023-02-22T04:34:38.622Z,169.90
2023-02-22T04:35:38.657Z,172.20
2023-02-22T04:36:38.648Z,169.36
2023-02-22T04:37:38.679Z,169.90
2023-02-22T04:38:38.682Z,172.16
2023-02-22T04:39:38.763Z,171.34
2023-02-22T04:40:38.754Z,172.00
2023-02-22T04:41:38.777Z,171.28
2023-02-22T04:42:38.814Z,169.66
2023-02-22T04:43:38.910Z,171.99
2023-02-22T04:44:38.877Z,172.87
2023-02-22T04:45:38.916Z,172.11
2023-02-22T04:46:39.012Z,171.35
2023-02-22T04:47:38.959Z,170.70
2023-02-22T04:48:38.993Z,170.55
2023-02-22T04:49:39.198Z,171.98
2023-02-22T04:50:39.085Z,170.47
2023-02-22T04:51:39.141Z,169.30
2023-02-22T04:52:39.191Z,168.15
2023-02-22T04:53:39.265Z,171.57
2023-02-22T04:54:39.300Z,172.89
2023-02-22T04:55:39.370Z,172.12
2023-02-22T04:56:39.413Z,170.79
2023-02-22T04:57:39.448Z,170.63
2023-02-22T04:58:39.445Z,171.51
2023-02-22T04:59:39.481Z,173.14
2023-02-22T05:00:39.543Z,172.75
2023-02-22T05:01:39.556Z,173.27
2023-02-22T05:02:39.664Z,173.88
2023-02-22T05:03:39.639Z,171.93
2023-02-22T05:04:39.752Z,171.01
2023-02-22T05:05:39.730Z,170.25
2023-02-22T05:06:39.769Z,169.53
2023-02-22T05:07:39.781Z,170.54
2023-02-22T05:08:39.808Z,171.82
2023-02-22T05:09:39.833Z,171.87
2023-02-22T05:10:39.861Z,171.53
2023-02-22T05:11:39.902Z,170.57
2023-02-22T05:12:39.940Z,171.23
2023-02-22T05:13:40.986Z,170.19
2023-02-22T05:14:40.036Z,170.34
2023-02-22T05:15:40.080Z,167.24
2023-02-22T05:16:40.129Z,168.35
2023-02-22T05:17:40.175Z,168.33
2023-02-22T05:18:40.210Z,169.97
2023-02-22T05:19:40.247Z,169.43
2023-02-22T05:20:40.284Z,168.32
2023-02-22T05:21:40.338Z,169.78
2023-02-22T05:22:40.354Z,168.54
2023-02-22T05:23:40.378Z,168.65
2023-02-22T05:24:40.415Z,169.83
2023-02-22T05:25:40.464Z,167.23
2023-02-22T05:26:40.508Z,168.72
2023-02-22T05:27:40.534Z,168.76
2023-02-22T05:28:40.563Z,170.16
2023-02-22T05:29:40.635Z,167.59
2023-02-22T05:30:40.767Z,168.91
2023-02-22T05:31:40.933Z,169.04
2023-02-22T05:32:40.829Z,169.12
2023-02-22T05:33:40.865Z,167.97
2023-02-22T05:34:40.919Z,169.82
2023-02-22T05:35:40.964Z,170.26
2023-02-22T05:36:41.024Z,168.35
2023-02-22T05:37:41.081Z,167.99
2023-02-22T05:38:41.134Z,168.53
2023-02-22T05:39:41.213Z,169.63
2023-02-22T05:40:41.275Z,170.92
2023-02-22T05:41:41.317Z,170.95
2023-02-22T05:42:41.390Z,170.87
2023-02-22T05:43:41.454Z,170.02
2023-02-22T05:44:41.501Z,168.88
2023-02-22T05:45:41.534Z,166.98
2023-02-22T05:46:41.630Z,168.45
2023-02-22T05:47:41.599Z,169.13
2023-02-22T05:48:41.621Z,166.89
2023-02-22T05:49:41.658Z,169.44
2023-02-22T05:50:41.697Z,168.37
2023-02-22T05:51:41.731Z,168.42
2023-02-22T05:52:41.761Z,166.65
2023-02-22T05:53:41.790Z,167.82
2023-02-22T05:54:41.809Z,165.90
2023-02-22T05:55:41.833Z,166.23
2023-02-22T05:56:41.856Z,166.65
2023-02-22T05:57:41.923Z,166.34
2023-02-22T05:58:41.934Z,165.75
2023-02-22T05:59:41.974Z,165.53
2023-02-22T06:00:41.997Z,166.93
2023-02-22T06:01:42.102Z,168.32
2023-02-22T06:02:42.121Z,168.52
2023-02-22T06:03:42.150Z,166.27
2023-02-22T06:04:42.192Z,165.25
2023-02-22T06:05:42.286Z,167.98
2023-02-22T06:06:42.281Z,165.27
2023-02-22T06:07:42.315Z,166.10
2023-02-22T06:08:42.340Z,166.60
2023-02-22T06:09:42.365Z,164.42
2023-02-22T06:10:42.386Z,168.73
2023-02-22T06:11:42.413Z,169.67
2023-02-22T06:12:42.445Z,171.34
2023-02-22T06:13:42.471Z,174.49
2023-02-22T06:14:42.486Z,174.21
2023-02-22T06:15:42.521Z,175.13
2023-02-22T06:16:42.537Z,177.47
2023-02-22T06:17:42.566Z,180.83
2023-02-22T06:18:42.590Z,182.51
2023-02-22T06:19:42.618Z,185.59
2023-02-22T06:20:42.638Z,186.77
2023-02-22T06:21:42.652Z,186.30
2023-02-22T06:22:42.676Z,189.59
2023-02-22T06:23:42.693Z,191.55
2023-02-22T06:24:42.718Z,188.41
2023-02-22T06:25:42.817Z,194.73
2023-02-22T06:26:42.782Z,203.43
2023-02-22T06:27:42.820Z,206.60
2023-02-22T06:28:42.835Z,205.98
2023-02-22T06:29:42.861Z,203.61
2023-02-22T06:30:43.027Z,209.79
2023-02-22T06:31:42.954Z,211.32
2023-02-22T06:32:42.992Z,211.63
2023-02-22T06:33:43.000Z,211.01
2023-02-22T06:34:43.936Z,212.94
2023-02-22T06:35:43.068Z,201.95
2023-02-22T06:36:43.129Z,203.83
2023-02-22T06:37:43.201Z,202.24
2023-02-22T06:38:43.269Z,204.80
2023-02-22T06:39:43.316Z,201.85
2023-02-22T06:40:43.382Z,201.27
2023-02-22T06:41:43.441Z,201.22
2023-02-22T06:42:43.506Z,198.69
2023-02-22T06:43:43.577Z,198.59
2023-02-22T06:44:43.634Z,197.72
2023-02-22T06:45:44.561Z,199.02
2023-02-22T06:46:43.768Z,202.67
2023-02-22T06:47:43.806Z,201.04
2023-02-22T06:48:43.822Z,198.74
2023-02-22T06:49:43.897Z,200.98
2023-02-22T06:50:43.895Z,211.67
2023-02-22T06:51:43.954Z,206.25
2023-02-22T06:52:43.997Z,203.17
2023-02-22T06:53:44.021Z,199.26
2023-02-22T06:54:44.029Z,194.06
2023-02-22T06:55:44.050Z,193.77
2023-02-22T06:56:44.110Z,200.84
2023-02-22T06:57:44.116Z,196.50
2023-02-22T06:58:44.132Z,176.78
2023-02-22T06:59:44.209Z,167.14
2023-02-22T07:00:44.208Z,166.05
2023-02-22T07:01:44.188Z,173.16
2023-02-22T07:02:44.215Z,181.60
2023-02-22T07:03:44.240Z,189.09
2023-02-22T07:04:44.239Z,193.24
2023-02-22T07:05:44.262Z,194.70
2023-02-22T07:06:44.266Z,190.05
2023-02-22T07:07:44.279Z,191.26
2023-02-22T07:08:44.293Z,191.71
2023-02-22T07:09:45.613Z,188.55
2023-02-22T07:10:44.365Z,186.37
2023-02-22T07:11:44.410Z,188.06
2023-02-22T07:12:44.459Z,188.35
2023-02-22T07:13:44.470Z,185.77
2023-02-22T07:14:44.493Z,185.79
2023-02-22T07:15:44.542Z,183.98
2023-02-22T07:16:44.586Z,185.37
2023-02-22T07:17:44.596Z,188.45
2023-02-22T07:18:44.643Z,188.25
2023-02-22T07:19:44.664Z,187.36
2023-02-22T07:20:44.848Z,186.53
2023-02-22T07:21:45.461Z,191.93
2023-02-22T07:22:44.724Z,195.51
2023-02-22T07:23:44.754Z,198.54
2023-02-22T07:24:45.555Z,198.19
2023-02-22T07:25:44.791Z,198.72
2023-02-22T07:26:44.825Z,199.66
2023-02-22T07:27:44.915Z,198.48
2023-02-22T07:28:44.856Z,197.07
2023-02-22T07:29:44.908Z,197.77
2023-02-22T07:30:44.932Z,195.11
2023-02-22T07:31:44.924Z,195.33
2023-02-22T07:32:45.079Z,196.42
2023-02-22T07:33:44.951Z,195.77
2023-02-22T07:34:44.963Z,193.34
2023-02-22T07:35:44.981Z,195.62
2023-02-22T07:36:44.986Z,195.60
2023-02-22T07:37:44.994Z,195.45
2023-02-22T07:38:45.005Z,193.80
2023-02-22T07:39:45.033Z,193.88
2023-02-22T07:40:45.043Z,194.11
2023-02-22T07:41:45.030Z,194.57
2023-02-22T07:42:45.049Z,196.20
2023-02-22T07:43:45.064Z,197.51
2023-02-22T07:44:45.070Z,196.33
2023-02-22T07:45:45.130Z,197.64
2023-02-22T07:46:45.098Z,197.47
2023-02-22T07:47:45.143Z,197.55
2023-02-22T07:48:45.136Z,197.70
2023-02-22T07:49:45.152Z,197.68
2023-02-22T07:50:45.156Z,197.71
2023-02-22T07:51:45.168Z,198.13
2023-02-22T07:52:45.168Z,198.94
2023-02-22T07:53:45.198Z,199.06
2023-02-22T07:54:45.195Z,201.15
2023-02-22T07:55:45.215Z,201.10
2023-02-22T07:56:45.216Z,199.30
2023-02-22T07:57:45.252Z,199.56
2023-02-22T07:58:47.985Z,200.54
2023-02-22T07:59:45.242Z,199.16
2023-02-22T08:00:45.266Z,201.96
2023-02-22T08:01:45.285Z,199.60
2023-02-22T08:02:45.328Z,201.41
2023-02-22T08:03:45.417Z,199.76
2023-02-22T08:04:45.292Z,202.28
2023-02-22T08:05:45.287Z,198.97
2023-02-22T08:06:45.306Z,202.50
2023-02-22T08:07:45.329Z,203.12
2023-02-22T08:08:45.320Z,203.01
2023-02-22T08:09:45.345Z,201.40
2023-02-22T08:10:45.346Z,203.62
2023-02-22T08:11:45.371Z,203.79
2023-02-22T08:12:45.393Z,203.99
2023-02-22T08:13:45.375Z,204.18
2023-02-22T08:14:45.396Z,204.81
2023-02-22T08:15:45.412Z,207.76
2023-02-22T08:16:45.443Z,208.01
2023-02-22T08:17:45.430Z,204.69
2023-02-22T08:18:45.451Z,207.53
2023-02-22T08:19:45.459Z,209.34
2023-02-22T08:20:45.484Z,210.93
2023-02-22T08:21:45.473Z,215.48
2023-02-22T08:22:45.521Z,214.58
2023-02-22T08:23:45.515Z,206.66
2023-02-22T08:24:46.066Z,196.10
2023-02-22T08:25:45.531Z,207.29
2023-02-22T08:26:45.513Z,207.43
2023-02-22T08:27:46.102Z,209.15
2023-02-22T08:28:46.080Z,212.55
2023-02-22T08:29:45.522Z,213.85
2023-02-22T08:30:45.604Z,213.73
2023-02-22T08:31:45.668Z,216.76
2023-02-22T08:32:45.733Z,216.31
2023-02-22T08:33:45.562Z,214.79
2023-02-22T08:34:45.574Z,216.17
2023-02-22T08:35:45.585Z,216.44
2023-02-22T08:36:46.603Z,217.95
2023-02-22T08:37:46.614Z,218.04
2023-02-22T08:38:45.620Z,218.35
2023-02-22T08:39:45.626Z,217.05
2023-02-22T08:40:45.649Z,218.13
2023-02-22T08:41:45.643Z,215.82
2023-02-22T08:42:45.655Z,216.01
2023-02-22T08:43:45.667Z,215.88
2023-02-22T08:44:45.677Z,214.28
2023-02-22T08:45:45.739Z,213.94
2023-02-22T08:46:45.694Z,214.03
2023-02-22T08:47:45.703Z,186.47
2023-02-22T08:48:45.711Z,183.91
2023-02-22T08:49:45.731Z,179.87
2023-02-22T08:50:45.736Z,194.12
2023-02-22T08:51:45.742Z,203.93
2023-02-22T08:52:45.746Z,203.85
2023-02-22T08:53:45.757Z,204.00
2023-02-22T08:54:45.769Z,204.48
2023-02-22T08:55:45.812Z,205.59
2023-02-22T08:56:45.789Z,206.49
2023-02-22T08:57:45.786Z,208.87
2023-02-22T08:58:45.803Z,209.96
2023-02-22T08:59:45.785Z,206.80
2023-02-22T09:00:45.812Z,207.36
2023-02-22T09:01:45.888Z,208.04
2023-02-22T09:02:45.817Z,210.02
2023-02-22T09:03:45.848Z,209.28
2023-02-22T09:04:45.824Z,208.98
2023-02-22T09:05:45.900Z,206.96
2023-02-22T09:06:45.838Z,208.83
2023-02-22T09:07:45.833Z,203.79
2023-02-22T09:08:45.835Z,207.67
2023-02-22T09:09:45.841Z,207.88
2023-02-22T09:10:45.850Z,208.59
2023-02-22T09:11:46.580Z,211.09
2023-02-22T09:12:45.881Z,209.94
2023-02-22T09:13:45.904Z,206.74
2023-02-22T09:14:45.911Z,206.95
2023-02-22T09:15:47.588Z,206.97
2023-02-22T09:16:45.985Z,207.39
2023-02-22T09:17:45.959Z,209.37
2023-02-22T09:18:45.960Z,211.19
2023-02-22T09:19:45.985Z,213.60
2023-02-22T09:20:46.008Z,220.11
2023-02-22T09:21:46.008Z,233.96
2023-02-22T09:22:46.020Z,245.72
2023-02-22T09:23:46.036Z,243.61
2023-02-22T09:24:46.045Z,246.56
2023-02-22T09:25:46.068Z,228.28
2023-02-22T09:26:46.064Z,234.82
2023-02-22T09:27:46.075Z,225.96
2023-02-22T09:28:46.077Z,219.93
2023-02-22T09:29:47.626Z,214.38
2023-02-22T09:30:46.188Z,217.64
2023-02-22T09:31:46.142Z,213.22
2023-02-22T09:32:46.320Z,222.19
2023-02-22T09:33:47.429Z,221.77
2023-02-22T09:34:46.100Z,224.29
2023-02-22T09:35:46.176Z,231.17
2023-02-22T09:36:47.101Z,231.41
2023-02-22T09:37:46.256Z,234.57
2023-02-22T09:38:46.309Z,235.32
2023-02-22T09:39:46.451Z,236.23
2023-02-22T09:40:46.408Z,235.77
2023-02-22T09:41:46.428Z,234.63
2023-02-22T09:42:46.457Z,236.46
2023-02-22T09:43:46.486Z,235.74
2023-02-22T09:44:46.501Z,234.14
2023-02-22T09:45:46.547Z,233.27
2023-02-22T09:46:46.624Z,236.35
2023-02-22T09:47:46.748Z,237.78
2023-02-22T09:48:46.661Z,239.26
2023-02-22T09:49:46.677Z,239.57
2023-02-22T09:50:46.789Z,239.20
2023-02-22T09:51:46.746Z,240.12
2023-02-22T09:52:46.774Z,240.88
2023-02-22T09:53:47.520Z,242.68
2023-02-22T09:54:46.863Z,200.36
2023-02-22T09:55:46.914Z,121.23
2023-02-22T09:56:46.967Z,87.51
2023-02-22T09:57:46.964Z,98.56
2023-02-22T09:58:47.010Z,116.79
2023-02-22T09:59:47.000Z,118.06
2023-02-22T10:00:47.013Z,119.04
2023-02-22T10:01:47.039Z,128.47
2023-02-22T10:02:47.026Z,146.23
2023-02-22T10:03:47.093Z,171.80
2023-02-22T10:04:47.030Z,205.40
2023-02-22T10:05:47.060Z,214.76
2023-02-22T10:06:47.109Z,209.97
2023-02-22T10:07:47.066Z,211.93
2023-02-22T10:08:47.059Z,210.73
2023-02-22T10:09:47.074Z,208.75
2023-02-22T10:10:47.091Z,209.86
2023-02-22T10:11:47.097Z,211.38
2023-02-22T10:12:47.101Z,212.07
2023-02-22T10:13:47.086Z,213.19
2023-02-22T10:14:47.088Z,216.36
2023-02-22T10:15:47.120Z,214.80
2023-02-22T10:16:47.182Z,216.12
2023-02-22T10:17:48.192Z,221.30
2023-02-22T10:18:47.180Z,221.57
2023-02-22T10:19:47.202Z,224.24
2023-02-22T10:20:48.141Z,228.53
2023-02-22T10:21:47.243Z,235.55
2023-02-22T10:22:47.248Z,222.10
2023-02-22T10:23:48.125Z,209.89
2023-02-22T10:24:47.272Z,150.97
2023-02-22T10:25:47.271Z,134.25
2023-02-22T10:26:47.284Z,139.12
2023-02-22T10:27:47.277Z,153.91
2023-02-22T10:28:58.365Z,149.08
2023-02-22T10:29:47.393Z,155.93
2023-02-22T10:30:47.357Z,168.26
2023-02-22T10:31:47.407Z,184.86
2023-02-22T10:32:47.310Z,193.31
2023-02-22T10:33:47.315Z,201.05
2023-02-22T10:34:47.316Z,206.75
2023-02-22T10:35:47.433Z,214.82
2023-02-22T10:36:47.459Z,219.03
2023-02-22T10:37:47.538Z,220.32
2023-02-22T10:38:47.574Z,222.18
2023-02-22T10:39:47.688Z,226.48
2023-02-22T10:40:47.736Z,227.32
2023-02-22T10:41:47.772Z,231.91
2023-02-22T10:42:47.853Z,233.36
2023-02-22T10:43:47.908Z,237.25
2023-02-22T10:44:47.971Z,236.05
2023-02-22T10:45:49.722Z,239.15
2023-02-22T10:46:48.096Z,239.86
2023-02-22T10:47:48.147Z,233.66
2023-02-22T10:48:48.206Z,199.94
2023-02-22T10:49:48.287Z,158.89
2023-02-22T10:50:48.333Z,99.28
2023-02-22T10:51:48.411Z,86.66
2023-02-22T10:52:48.465Z,118.42
2023-02-22T10:53:48.525Z,140.10
2023-02-22T10:54:48.574Z,157.88
2023-02-22T10:55:50.686Z,167.96
2023-02-22T10:56:48.639Z,168.00
2023-02-22T10:57:48.644Z,170.24
2023-02-22T10:58:48.628Z,176.71
2023-02-22T10:59:48.617Z,184.18
2023-02-22T11:00:49.284Z,189.59
2023-02-22T11:01:48.687Z,192.54
2023-02-22T11:02:48.628Z,202.15
2023-02-22T11:03:48.640Z,207.20
2023-02-22T11:04:48.700Z,211.15
2023-02-22T11:05:48.648Z,212.05
2023-02-22T11:06:48.632Z,215.52
2023-02-22T11:07:48.644Z,215.60
2023-02-22T11:08:48.648Z,211.99
2023-02-22T11:09:48.652Z,213.02
2023-02-22T11:11:50.689Z,195.45
2023-02-22T11:12:49.617Z,202.60
2023-02-22T11:13:48.683Z,213.19
2023-02-22T11:14:48.687Z,209.22
2023-02-22T11:15:50.669Z,220.01
2023-02-22T11:16:48.719Z,228.37
2023-02-22T11:18:48.736Z,236.69
2023-02-22T11:19:48.728Z,242.80
2023-02-22T11:20:48.727Z,246.31
2023-02-22T11:21:48.723Z,247.29
2023-02-22T11:22:48.720Z,243.78
2023-02-22T11:23:48.731Z,243.19
2023-02-22T11:24:49.646Z,247.72
2023-02-22T11:25:48.719Z,250.75
2023-02-22T11:26:48.734Z,249.31
2023-02-22T11:27:48.720Z,249.47
2023-02-22T11:28:48.710Z,249.85
2023-02-22T11:29:48.713Z,251.26
2023-02-22T11:30:48.840Z,253.73
2023-02-22T11:31:48.816Z,255.26
2023-02-22T11:32:48.720Z,249.05
2023-02-22T11:33:48.732Z,249.30
2023-02-22T11:34:50.861Z,249.30
2023-02-22T11:35:48.746Z,249.35
2023-02-22T11:36:48.757Z,249.38
2023-02-22T11:37:48.765Z,246.43
2023-02-22T11:38:48.784Z,247.22
2023-02-22T11:39:48.772Z,250.60
2023-02-22T11:40:48.830Z,248.50
2023-02-22T11:41:48.778Z,250.52
2023-02-22T11:42:48.852Z,249.03
2023-02-22T11:43:48.770Z,242.28
2023-02-22T11:44:48.808Z,241.63
2023-02-22T11:45:57.843Z,242.91
2023-02-22T11:46:49.842Z,243.12
2023-02-22T11:47:48.789Z,243.06
2023-02-22T11:48:48.819Z,243.87
2023-02-22T11:49:48.796Z,243.36
2023-02-22T11:50:48.808Z,241.53
2023-02-22T11:51:48.826Z,241.58
2023-02-22T11:52:48.809Z,239.74
2023-02-22T11:57:48.841Z,237.50
2023-02-22T11:59:48.841Z,237.98
2023-02-22T12:00:48.855Z,246.03
2023-02-22T12:03:00.811Z,244.67
2023-02-22T12:04:48.946Z,243.45
2023-02-22T12:05:48.871Z,243.07
2023-02-22T12:08:48.872Z,250.68
2023-02-22T12:13:48.962Z,248.66
2023-02-22T12:15:49.037Z,245.82
2023-02-22T12:18:49.133Z,246.18
2023-02-22T13:29:53.110Z,230.46
2023-02-22T13:30:53.155Z,228.72
2023-02-22T13:31:53.184Z,228.60
2023-02-22T13:32:53.150Z,233.13
2023-02-22T13:33:53.176Z,232.67
2023-02-22T13:34:53.208Z,228.89
2023-02-22T13:35:53.249Z,229.22
2023-02-22T13:36:53.313Z,228.09
2023-02-22T13:37:53.365Z,226.57
2023-02-22T13:38:53.426Z,228.72
2023-02-22T13:39:53.483Z,227.45
2023-02-22T13:40:53.526Z,230.69
2023-02-22T13:41:53.557Z,229.38
2023-02-22T13:42:53.630Z,231.83
2023-02-22T13:43:53.682Z,230.53
2023-02-22T13:44:53.738Z,230.02
2023-02-22T13:45:53.825Z,227.39
2023-02-22T13:46:53.912Z,228.80
2023-02-22T13:47:53.855Z,231.60
2023-02-22T13:48:53.897Z,231.98
2023-02-22T13:49:53.938Z,230.77
2023-02-22T13:50:53.978Z,232.81
2023-02-22T13:51:54.015Z,232.17
2023-02-22T13:52:54.077Z,231.98
2023-02-22T13:53:54.127Z,229.34
2023-02-22T13:54:54.175Z,230.97
2023-02-22T13:55:54.241Z,230.85
2023-02-22T13:56:54.298Z,233.88